createdAt,value
2023-05-14T00:02:07.799Z,8.91
2023-05-14T00:04:35.546Z,8.94
2023-05-14T00:07:04.470Z,8.95
2023-05-14T00:09:32.803Z,8.97
2023-05-14T00:12:00.321Z,8.95
2023-05-14T00:14:27.803Z,8.92
2023-05-14T00:16:55.356Z,8.88
2023-05-14T00:19:22.912Z,8.85
2023-05-14T00:21:50.523Z,8.72
2023-05-14T00:24:19.396Z,8.53
2023-05-14T00:26:46.912Z,8.53
2023-05-14T00:29:14.399Z,8.46
2023-05-14T00:31:42.447Z,8.36
2023-05-14T00:34:10.046Z,8.31
2023-05-14T00:36:37.897Z,8.28
2023-05-14T00:39:05.481Z,8.27
2023-05-14T00:41:34.353Z,8.36
2023-05-14T00:44:01.887Z,8.19
2023-05-14T00:46:29.656Z,8.18
2023-05-14T00:48:57.232Z,8.11
2023-05-14T00:51:24.781Z,8.03
2023-05-14T00:53:52.926Z,8.04
2023-05-14T00:56:21.324Z,8.00
2023-05-14T00:58:50.213Z,8.02
2023-05-14T01:01:18.113Z,8.05
2023-05-14T01:03:46.037Z,8.04
2023-05-14T01:06:16.997Z,8.04
2023-05-14T01:08:51.808Z,8.15
2023-05-14T01:11:22.563Z,8.15
2023-05-14T01:13:59.844Z,8.19
2023-05-14T01:16:28.835Z,8.06
2023-05-14T01:18:57.822Z,8.08
2023-05-14T01:21:35.197Z,8.20
2023-05-14T01:24:03.099Z,8.21
2023-05-14T01:26:31.396Z,8.25
2023-05-14T01:29:02.821Z,8.26
2023-05-14T01:31:32.624Z,8.23
2023-05-14T01:34:00.588Z,8.26
2023-05-14T01:36:30.951Z,8.30
2023-05-14T01:38:58.662Z,8.30
2023-05-14T01:41:27.243Z,8.26
2023-05-14T01:43:54.877Z,8.21
2023-05-14T01:46:24.172Z,8.13
2023-05-14T01:48:51.883Z,8.06
2023-05-14T01:51:19.382Z,8.02
2023-05-14T01:53:48.218Z,7.99
2023-05-14T01:56:15.752Z,7.93
2023-05-14T01:58:43.275Z,7.89
2023-05-14T02:01:10.813Z,7.88
2023-05-14T02:03:38.376Z,7.80
2023-05-14T02:06:06.146Z,7.79
2023-05-14T02:08:33.615Z,7.79
2023-05-14T02:11:02.465Z,7.87
2023-05-14T02:13:29.982Z,7.89
2023-05-14T02:15:57.570Z,7.87
2023-05-14T02:18:25.290Z,7.93
2023-05-14T02:20:52.809Z,8.03
2023-05-14T02:23:25.643Z,8.12
2023-05-14T02:25:58.748Z,8.09
2023-05-14T02:28:27.571Z,8.14
2023-05-14T02:30:59.651Z,8.14
2023-05-14T02:33:27.223Z,8.09
2023-05-14T02:35:54.865Z,8.09
2023-05-14T02:38:22.424Z,8.17
2023-05-14T02:40:49.991Z,8.20
2023-05-14T02:43:17.604Z,8.19
2023-05-14T02:45:46.423Z,8.18
2023-05-14T02:48:14.152Z,8.24
2023-05-14T02:50:41.692Z,8.25
2023-05-14T02:53:09.210Z,8.27
2023-05-14T02:55:37.352Z,8.28
2023-05-14T02:58:04.864Z,8.32
2023-05-14T03:00:32.421Z,8.31
2023-05-14T03:03:01.697Z,8.26
2023-05-14T03:05:29.807Z,8.24
2023-05-14T03:07:57.352Z,8.15
2023-05-14T03:10:25.208Z,8.13
2023-05-14T03:12:52.892Z,8.13
2023-05-14T03:15:20.651Z,8.03
2023-05-14T03:17:48.167Z,7.97
2023-05-14T03:20:17.215Z,7.93
2023-05-14T03:22:44.799Z,7.95
2023-05-14T03:25:12.352Z,7.92
2023-05-14T03:27:39.839Z,7.79
2023-05-14T03:30:08.649Z,7.94
2023-05-14T03:32:37.405Z,7.96
2023-05-14T03:35:05.522Z,7.95
2023-05-14T03:37:34.449Z,7.92
2023-05-14T03:40:01.987Z,7.82
2023-05-14T03:42:29.556Z,7.77
2023-05-14T03:44:57.033Z,7.55
2023-05-14T03:47:24.606Z,7.53
2023-05-14T03:49:52.237Z,7.63
2023-05-14T03:52:19.898Z,7.61
2023-05-14T03:54:49.019Z,7.62
2023-05-14T03:57:16.520Z,7.60
2023-05-14T03:59:44.016Z,7.60
2023-05-14T04:02:11.568Z,7.49
2023-05-14T04:04:39.132Z,7.50
2023-05-14T04:07:06.835Z,7.44
2023-05-14T04:09:34.367Z,7.43
2023-05-14T04:12:03.381Z,7.39
2023-05-14T04:14:30.854Z,7.42
2023-05-14T04:17:00.173Z,7.34
2023-05-14T04:19:27.911Z,7.41
2023-05-14T04:21:55.441Z,7.46
2023-05-14T04:24:22.977Z,7.52
2023-05-14T04:26:50.465Z,7.49
2023-05-14T04:29:19.329Z,7.58
2023-05-14T04:31:47.051Z,7.54
2023-05-14T04:34:14.584Z,7.65
2023-05-14T04:36:42.170Z,7.59
2023-05-14T04:39:12.264Z,7.79
2023-05-14T04:41:39.932Z,7.74
2023-05-14T04:44:08.092Z,7.96
2023-05-14T04:46:37.250Z,8.03
2023-05-14T04:49:05.103Z,8.14
2023-05-14T04:51:32.609Z,8.18
2023-05-14T04:54:00.236Z,8.34
2023-05-14T04:56:28.119Z,8.48
2023-05-14T04:58:55.699Z,8.51
2023-05-14T05:01:23.489Z,8.58
2023-05-14T05:03:52.524Z,8.71
2023-05-14T05:06:20.279Z,8.76
2023-05-14T05:08:47.828Z,9.07
2023-05-14T05:11:15.341Z,9.24
2023-05-14T05:13:42.883Z,9.29
2023-05-14T05:16:10.470Z,9.47
2023-05-14T05:18:39.095Z,9.58
2023-05-14T05:21:08.096Z,9.70
2023-05-14T05:23:35.978Z,9.80
2023-05-14T05:26:03.620Z,10.02
2023-05-14T05:28:31.197Z,10.11
2023-05-14T05:30:58.748Z,10.14
2023-05-14T05:33:26.437Z,10.51
2023-05-14T05:35:53.925Z,10.67
2023-05-14T05:38:22.745Z,10.57
2023-05-14T05:40:50.338Z,10.69
2023-05-14T05:43:17.991Z,10.81
2023-05-14T05:45:46.466Z,10.78
2023-05-14T05:48:13.953Z,11.04
2023-05-14T05:50:41.661Z,11.29
2023-05-14T05:53:09.120Z,11.42
2023-05-14T05:55:37.983Z,11.43
2023-05-14T05:58:05.717Z,11.50
2023-05-14T06:00:33.338Z,11.57
2023-05-14T06:03:01.055Z,11.64
2023-05-14T06:05:28.718Z,11.65
2023-05-14T06:07:56.243Z,11.69
2023-05-14T06:10:24.450Z,11.72
2023-05-14T06:12:53.524Z,11.82
2023-05-14T06:15:21.785Z,11.92
2023-05-14T06:17:49.373Z,11.85
2023-05-14T06:20:17.158Z,11.85
2023-05-14T06:22:44.757Z,11.94
2023-05-14T06:25:12.571Z,11.91
2023-05-14T06:27:40.059Z,12.10
2023-05-14T06:30:10.406Z,12.29
2023-05-14T06:32:37.978Z,12.32
2023-05-14T06:35:06.214Z,12.75
2023-05-14T06:37:33.892Z,12.85
2023-05-14T06:40:01.654Z,12.99
2023-05-14T06:42:29.176Z,13.10
2023-05-14T06:44:56.713Z,13.15
2023-05-14T06:47:26.840Z,12.96
2023-05-14T06:49:55.719Z,12.85
2023-05-14T06:52:23.229Z,12.86
2023-05-14T06:54:50.720Z,12.95
2023-05-14T06:57:18.236Z,13.14
2023-05-14T06:59:45.757Z,13.27
2023-05-14T07:02:13.660Z,13.38
2023-05-14T07:04:42.617Z,13.24
2023-05-14T07:07:15.325Z,13.26
2023-05-14T07:09:43.054Z,13.37
2023-05-14T07:12:10.629Z,13.30
2023-05-14T07:14:38.316Z,13.55
2023-05-14T07:17:05.925Z,13.84
2023-05-14T07:19:33.439Z,13.97
2023-05-14T07:22:02.289Z,13.96
2023-05-14T07:24:29.796Z,13.68
2023-05-14T07:26:58.107Z,13.82
2023-05-14T07:29:26.094Z,13.68
2023-05-14T07:31:53.660Z,13.69
2023-05-14T07:34:21.243Z,13.89
2023-05-14T07:36:48.847Z,14.03
2023-05-14T07:39:17.731Z,14.12
2023-05-14T07:41:45.274Z,14.36
2023-05-14T07:44:13.031Z,14.52
2023-05-14T07:46:40.987Z,14.75
2023-05-14T07:49:08.495Z,14.87
2023-05-14T07:51:36.012Z,15.38
2023-05-14T07:54:03.526Z,15.49
2023-05-14T07:56:32.465Z,15.74
2023-05-14T07:58:59.975Z,15.81
2023-05-14T08:01:27.625Z,16.03
2023-05-14T08:03:55.176Z,16.28
2023-05-14T08:06:23.689Z,16.06
2023-05-14T08:08:51.211Z,15.74
2023-05-14T08:11:18.876Z,15.48
2023-05-14T08:13:47.757Z,15.49
2023-05-14T08:16:15.322Z,15.15
2023-05-14T08:18:43.625Z,15.28
2023-05-14T08:21:11.150Z,15.47
2023-05-14T08:23:38.665Z,15.57
2023-05-14T08:26:06.629Z,15.63
2023-05-14T08:28:34.141Z,15.75
2023-05-14T08:31:03.048Z,15.99
2023-05-14T08:33:30.621Z,16.23
2023-05-14T08:36:00.417Z,16.57
2023-05-14T08:38:27.983Z,16.32
2023-05-14T08:40:58.506Z,16.32
2023-05-14T08:43:27.725Z,16.37
2023-05-14T08:45:59.468Z,15.99
2023-05-14T08:48:30.628Z,16.19
2023-05-14T08:50:58.747Z,15.98
2023-05-14T08:53:26.439Z,16.30
2023-05-14T08:55:54.881Z,16.63
2023-05-14T08:58:22.414Z,16.14
2023-05-14T09:00:50.089Z,16.46
2023-05-14T09:03:18.413Z,16.48
2023-05-14T09:05:48.688Z,16.46
2023-05-14T09:08:16.280Z,16.37
2023-05-14T09:10:43.864Z,16.60
2023-05-14T09:13:11.467Z,16.96
2023-05-14T09:15:41.318Z,17.29
2023-05-14T09:18:09.011Z,17.18
2023-05-14T09:20:36.779Z,16.85
2023-05-14T09:23:05.924Z,16.98
2023-05-14T09:25:33.791Z,17.14
2023-05-14T09:28:01.344Z,17.55
2023-05-14T09:30:28.900Z,17.43
2023-05-14T09:32:56.545Z,17.46
2023-05-14T09:35:25.458Z,17.32
2023-05-14T09:37:54.297Z,17.36
2023-05-14T09:40:25.118Z,17.14
2023-05-14T09:42:52.971Z,17.57
2023-05-14T09:45:20.552Z,17.68
2023-05-14T09:47:48.239Z,17.67
2023-05-14T09:50:16.043Z,17.56
2023-05-14T09:52:43.595Z,17.54
2023-05-14T09:55:11.171Z,17.57
2023-05-14T09:57:40.699Z,17.70
2023-05-14T10:00:10.255Z,17.69
2023-05-14T10:02:40.568Z,17.91
2023-05-14T10:05:09.360Z,17.99
2023-05-14T10:07:41.757Z,17.95
2023-05-14T10:10:13.297Z,17.93
2023-05-14T10:12:42.445Z,17.66
2023-05-14T10:15:14.825Z,17.39
2023-05-14T10:17:45.728Z,17.27
2023-05-14T10:20:16.519Z,17.45
2023-05-14T10:22:44.114Z,17.41
2023-05-14T10:25:12.292Z,17.36
2023-05-14T10:27:41.811Z,17.39
2023-05-14T10:30:12.932Z,17.78
2023-05-14T10:32:41.922Z,18.31
2023-05-14T10:35:20.622Z,18.55
2023-05-14T10:37:48.375Z,18.55
2023-05-14T10:40:15.999Z,19.12
2023-05-14T10:42:45.216Z,19.04
2023-05-14T10:45:14.219Z,18.80
2023-05-14T10:47:44.067Z,18.74
2023-05-14T10:50:13.482Z,18.34
2023-05-14T10:52:43.316Z,18.23
2023-05-14T10:55:14.072Z,18.49
2023-05-14T10:57:43.906Z,18.65
2023-05-14T11:00:14.944Z,18.65
2023-05-14T11:02:44.544Z,18.91
2023-05-14T11:05:15.617Z,18.78
2023-05-14T11:07:44.914Z,18.71
2023-05-14T11:10:13.606Z,18.41
2023-05-14T11:12:42.636Z,18.30
2023-05-14T11:15:11.538Z,17.84
2023-05-14T11:17:42.426Z,18.27
2023-05-14T11:20:11.397Z,18.65
2023-05-14T11:22:40.354Z,18.60
2023-05-14T11:25:09.461Z,18.86
2023-05-14T11:27:38.554Z,19.13
2023-05-14T11:30:12.860Z,19.70
2023-05-14T11:32:41.957Z,19.99
2023-05-14T11:35:10.138Z,19.48
2023-05-14T11:37:37.692Z,19.61
2023-05-14T11:40:10.772Z,19.34
2023-05-14T11:42:38.339Z,18.79
2023-05-14T11:45:07.092Z,18.60
2023-05-14T11:47:34.645Z,18.42
2023-05-14T11:50:03.491Z,18.07
2023-05-14T11:52:31.176Z,18.21
2023-05-14T11:54:58.712Z,18.22
2023-05-14T11:57:26.831Z,18.17
2023-05-14T11:59:57.577Z,18.31
2023-05-14T12:02:29.007Z,18.29
2023-05-14T12:04:56.631Z,18.35
2023-05-14T12:07:29.996Z,18.49
2023-05-14T12:10:01.995Z,18.68
2023-05-14T12:12:36.224Z,18.85
2023-05-14T12:15:03.967Z,18.85
2023-05-14T12:17:31.560Z,19.02
2023-05-14T12:19:59.319Z,19.17
2023-05-14T12:22:30.611Z,19.44
2023-05-14T12:24:59.033Z,19.30
2023-05-14T12:27:27.567Z,19.06
2023-05-14T12:30:09.114Z,19.33
2023-05-14T12:32:48.933Z,19.28
2023-05-14T12:35:16.631Z,19.37
2023-05-14T12:37:45.510Z,18.60
2023-05-14T12:40:13.545Z,18.04
2023-05-14T12:42:41.106Z,17.82
2023-05-14T12:45:09.197Z,17.81
2023-05-14T12:47:37.382Z,17.39
2023-05-14T12:50:05.798Z,17.30
2023-05-14T12:52:38.752Z,17.19
2023-05-14T12:55:10.030Z,17.14
2023-05-14T12:57:38.836Z,17.03
2023-05-14T13:00:08.501Z,17.16
2023-05-14T13:02:42.349Z,16.96
2023-05-14T13:05:11.292Z,16.83
2023-05-14T13:07:39.006Z,16.93
2023-05-14T13:10:09.293Z,16.87
2023-05-14T13:12:36.854Z,16.69
2023-05-14T13:15:04.752Z,16.73
2023-05-14T13:17:32.641Z,16.83
2023-05-14T13:20:00.218Z,17.03
2023-05-14T13:22:27.915Z,17.67
2023-05-14T13:24:55.402Z,17.91
2023-05-14T13:27:24.297Z,18.19
2023-05-14T13:29:52.009Z,18.36
2023-05-14T13:32:19.529Z,18.19
2023-05-14T13:34:47.257Z,18.39
2023-05-14T13:37:14.896Z,18.55
2023-05-14T13:39:42.431Z,18.70
2023-05-14T13:42:09.989Z,18.66
2023-05-14T13:44:39.131Z,18.99
2023-05-14T13:47:07.164Z,18.74
2023-05-14T13:49:34.700Z,18.47
2023-05-14T13:52:02.223Z,18.48
2023-05-14T13:54:29.756Z,18.30
2023-05-14T13:56:57.309Z,17.90
2023-05-14T13:59:24.874Z,17.60
2023-05-14T14:01:53.764Z,17.01
2023-05-14T14:04:22.123Z,16.27
2023-05-14T14:06:49.923Z,15.99
2023-05-14T14:09:17.517Z,15.37
2023-05-14T14:11:45.069Z,14.41
2023-05-14T14:14:13.492Z,14.17
2023-05-14T14:16:41.224Z,13.63
2023-05-14T14:19:10.294Z,13.36
2023-05-14T14:21:39.671Z,13.01
2023-05-14T14:24:07.626Z,13.16
2023-05-14T14:26:35.156Z,13.12
2023-05-14T14:29:02.671Z,13.34
2023-05-14T14:31:30.201Z,13.51
2023-05-14T14:33:57.760Z,13.42
2023-05-14T14:36:26.679Z,13.23
2023-05-14T14:38:54.241Z,13.23
2023-05-14T14:41:22.326Z,13.25
2023-05-14T14:43:50.227Z,13.21
2023-05-14T14:46:17.841Z,13.15
2023-05-14T14:48:45.812Z,13.19
2023-05-14T14:51:13.369Z,13.14
2023-05-14T14:53:42.344Z,13.28
2023-05-14T14:56:09.930Z,13.09
2023-05-14T14:58:37.480Z,13.24
2023-05-14T15:01:05.333Z,13.25
2023-05-14T15:03:33.023Z,13.47
2023-05-14T15:06:00.703Z,13.65
2023-05-14T15:08:29.065Z,13.81
2023-05-14T15:10:59.253Z,13.85
2023-05-14T15:13:27.026Z,13.98
2023-05-14T15:15:54.665Z,13.80
2023-05-14T15:18:22.161Z,13.62
2023-05-14T15:20:50.018Z,13.21
2023-05-14T15:23:17.630Z,13.37
2023-05-14T15:25:45.436Z,13.16
2023-05-14T15:28:14.320Z,13.27
2023-05-14T15:30:41.849Z,13.16
2023-05-14T15:33:09.521Z,13.37
2023-05-14T15:35:37.513Z,13.42
2023-05-14T15:38:05.174Z,13.50
2023-05-14T15:40:34.850Z,13.50
2023-05-14T15:43:02.787Z,13.43
2023-05-14T15:45:31.614Z,13.76
2023-05-14T15:47:59.192Z,13.67
2023-05-14T15:50:27.340Z,13.92
2023-05-14T15:52:54.997Z,14.09
2023-05-14T15:55:22.695Z,14.14
2023-05-14T15:57:50.214Z,14.33
2023-05-14T16:00:18.610Z,14.37
2023-05-14T16:02:47.632Z,14.37
2023-05-14T16:05:15.524Z,14.14
2023-05-14T16:07:43.326Z,14.00
2023-05-14T16:10:11.664Z,14.13
2023-05-14T16:12:39.183Z,14.24
2023-05-14T16:15:08.396Z,14.13
2023-05-14T16:17:36.378Z,14.08
2023-05-14T16:20:06.142Z,14.19
2023-05-14T16:22:34.703Z,14.26
2023-05-14T16:25:03.507Z,14.26
2023-05-14T16:27:31.530Z,14.08
2023-05-14T16:29:59.117Z,14.16
2023-05-14T16:32:26.700Z,14.14
2023-05-14T16:34:56.445Z,14.08
2023-05-14T16:37:25.864Z,14.27
2023-05-14T16:39:53.451Z,14.10
2023-05-14T16:42:21.294Z,14.07
2023-05-14T16:44:48.838Z,14.10
2023-05-14T16:47:16.432Z,13.79
2023-05-14T16:49:44.299Z,13.65
2023-05-14T16:52:11.840Z,13.82
2023-05-14T16:54:40.653Z,13.91
2023-05-14T16:57:08.189Z,13.92
2023-05-14T16:59:36.070Z,13.93
2023-05-14T17:02:03.708Z,14.26
2023-05-14T17:04:33.260Z,14.34
2023-05-14T17:07:01.503Z,14.59
2023-05-14T17:09:29.072Z,14.79
2023-05-14T17:11:57.983Z,14.59
2023-05-14T17:14:25.664Z,14.57
2023-05-14T17:16:53.228Z,14.21
2023-05-14T17:19:20.761Z,13.84
2023-05-14T17:21:48.293Z,13.69
2023-05-14T17:24:16.367Z,13.67
2023-05-14T17:26:43.925Z,13.32
2023-05-14T17:29:12.926Z,13.05
2023-05-14T17:31:40.508Z,13.01
2023-05-14T17:34:08.103Z,12.94
2023-05-14T17:36:35.607Z,13.08
2023-05-14T17:39:03.156Z,13.14
2023-05-14T17:41:30.814Z,12.88
2023-05-14T17:43:58.653Z,12.85
2023-05-14T17:46:27.558Z,12.78
2023-05-14T17:48:55.092Z,12.45
2023-05-14T17:51:22.651Z,12.48
2023-05-14T17:53:50.819Z,12.44
2023-05-14T17:56:18.575Z,12.22
2023-05-14T17:58:46.436Z,12.17
2023-05-14T18:01:14.056Z,12.12
2023-05-14T18:03:43.373Z,11.92
2023-05-14T18:06:11.061Z,11.87
2023-05-14T18:08:38.611Z,11.81
2023-05-14T18:11:06.168Z,11.72
2023-05-14T18:13:33.922Z,11.78
2023-05-14T18:16:01.599Z,11.67
2023-05-14T18:18:29.175Z,11.66
2023-05-14T18:20:58.101Z,11.64
2023-05-14T18:23:25.692Z,11.57
2023-05-14T18:25:53.226Z,11.52
2023-05-14T18:28:21.417Z,11.41
2023-05-14T18:30:49.949Z,11.38
2023-05-14T18:33:17.640Z,11.23
2023-05-14T18:35:45.325Z,11.24
2023-05-14T18:38:14.241Z,11.20
2023-05-14T18:40:41.812Z,11.08
2023-05-14T18:43:09.608Z,11.00
2023-05-14T18:45:37.440Z,10.69
2023-05-14T18:48:06.037Z,10.67
2023-05-14T18:50:33.788Z,10.60
2023-05-14T18:53:01.377Z,10.48
2023-05-14T18:55:30.311Z,10.38
2023-05-14T18:57:57.976Z,10.21
2023-05-14T19:00:25.581Z,10.23
2023-05-14T19:02:53.232Z,10.26
2023-05-14T19:05:20.954Z,10.18
2023-05-14T19:07:49.301Z,10.17
2023-05-14T19:10:16.859Z,10.12
2023-05-14T19:12:47.136Z,10.04
2023-05-14T19:15:14.714Z,9.96
2023-05-14T19:17:42.539Z,9.93
2023-05-14T19:20:11.814Z,9.84
2023-05-14T19:22:39.454Z,9.78
2023-05-14T19:25:08.462Z,9.83
2023-05-14T19:27:37.745Z,9.84
2023-05-14T19:30:08.020Z,9.85
2023-05-14T19:32:37.648Z,9.78
2023-05-14T19:35:06.051Z,9.74
2023-05-14T19:37:34.207Z,9.72
2023-05-14T19:40:01.791Z,9.64
2023-05-14T19:42:29.378Z,9.51
2023-05-14T19:44:56.943Z,9.60
2023-05-14T19:47:25.928Z,9.45
2023-05-14T19:49:53.543Z,9.43
2023-05-14T19:52:21.155Z,9.38
2023-05-14T19:54:48.695Z,9.39
2023-05-14T19:57:16.248Z,9.46
2023-05-14T19:59:44.360Z,9.47
2023-05-14T20:02:18.268Z,9.48
2023-05-14T20:04:47.464Z,9.50
2023-05-14T20:07:15.717Z,9.50
2023-05-14T20:09:43.446Z,9.45
2023-05-14T20:12:12.834Z,9.45
2023-05-14T20:14:41.037Z,9.42
2023-05-14T20:17:08.705Z,9.31
2023-05-14T20:19:36.301Z,9.21
2023-05-14T20:22:05.556Z,9.10
2023-05-14T20:24:33.083Z,9.16
2023-05-14T20:27:00.611Z,9.08
2023-05-14T20:29:28.170Z,9.06
2023-05-14T20:31:55.763Z,9.04
2023-05-14T20:34:23.334Z,8.97
2023-05-14T20:36:51.845Z,8.86
2023-05-14T20:39:21.120Z,9.12
2023-05-14T20:41:48.696Z,9.05
2023-05-14T20:44:16.780Z,9.06
2023-05-14T20:46:45.580Z,9.02
2023-05-14T20:49:13.666Z,8.96
2023-05-14T20:51:41.225Z,8.94
2023-05-14T20:54:08.781Z,8.91
2023-05-14T20:56:37.704Z,8.91
2023-05-14T20:59:05.215Z,8.82
2023-05-14T21:01:32.824Z,8.81
2023-05-14T21:04:00.523Z,8.77
2023-05-14T21:06:28.293Z,8.74
2023-05-14T21:08:55.813Z,8.87
2023-05-14T21:11:23.946Z,8.89
2023-05-14T21:13:52.821Z,8.95
2023-05-14T21:16:20.658Z,9.00
2023-05-14T21:18:48.345Z,9.05
2023-05-14T21:21:15.953Z,9.08
2023-05-14T21:23:43.693Z,9.07
2023-05-14T21:26:11.407Z,8.95
2023-05-14T21:28:38.972Z,9.03
2023-05-14T21:31:07.893Z,8.98
2023-05-14T21:33:35.479Z,9.00
2023-05-14T21:36:03.043Z,9.02
2023-05-14T21:38:31.662Z,9.07
2023-05-14T21:40:59.524Z,9.15
2023-05-14T21:43:27.571Z,9.09
2023-05-14T21:45:55.143Z,9.24
2023-05-14T21:48:24.160Z,9.25
2023-05-14T21:50:51.818Z,9.34
2023-05-14T21:53:19.374Z,9.39
2023-05-14T21:55:47.207Z,9.32
2023-05-14T21:58:14.860Z,9.31
2023-05-14T22:00:42.385Z,9.30
2023-05-14T22:03:10.057Z,9.23
2023-05-14T22:05:39.305Z,9.16
2023-05-14T22:08:07.246Z,9.16
2023-05-14T22:10:35.663Z,9.09
2023-05-14T22:13:03.241Z,9.09
2023-05-14T22:15:30.798Z,9.09
2023-05-14T22:17:58.396Z,9.02
2023-05-14T22:20:26.023Z,9.01
2023-05-14T22:22:54.896Z,9.08
2023-05-14T22:25:22.927Z,9.09
2023-05-14T22:27:50.704Z,9.08
2023-05-14T22:30:18.299Z,9.10
2023-05-14T22:32:45.952Z,9.05
2023-05-14T22:35:13.552Z,9.11
2023-05-14T22:37:41.077Z,9.16
2023-05-14T22:40:11.039Z,9.17
2023-05-14T22:42:38.647Z,9.14
2023-05-14T22:45:08.036Z,9.17
2023-05-14T22:47:35.613Z,9.18
2023-05-14T22:50:03.421Z,9.21
2023-05-14T22:52:30.925Z,9.25
2023-05-14T22:54:58.515Z,9.24
2023-05-14T22:57:27.446Z,9.31
2023-05-14T22:59:55.027Z,9.35
2023-05-14T23:02:22.574Z,9.30
2023-05-14T23:04:50.256Z,9.32
2023-05-14T23:07:17.866Z,9.34
2023-05-14T23:09:45.530Z,9.33
2023-05-14T23:12:13.056Z,9.38
2023-05-14T23:14:42.498Z,9.34
2023-05-14T23:17:10.103Z,9.38
2023-05-14T23:19:37.872Z,9.28
2023-05-14T23:22:05.894Z,9.37
2023-05-14T23:24:33.406Z,9.32
2023-05-14T23:27:01.037Z,9.33
2023-05-14T23:29:28.585Z,9.30
2023-05-14T23:31:57.605Z,9.26
2023-05-14T23:34:25.260Z,9.25
2023-05-14T23:36:52.952Z,9.23
2023-05-14T23:39:20.868Z,9.11
2023-05-14T23:41:48.371Z,9.17
2023-05-14T23:44:16.122Z,9.07
2023-05-14T23:46:44.825Z,9.11
2023-05-14T23:49:13.965Z,9.07
2023-05-14T23:51:41.478Z,9.06
2023-05-14T23:54:09.060Z,9.08
2023-05-14T23:56:36.589Z,9.07
2023-05-14T23:59:04.874Z,9.08
